sensor_id;sensor_type;location;lat;lon;timestamp;P1;durP1;ratioP1;P2;durP2;ratioP2
22468;SDS011;11401;50.792;4.352;2024-03-06T00:00:16;5.13;;;3.78;;
22468;SDS011;11401;50.792;4.352;2024-03-06T00:02:43;3.60;;;3.30;;
22468;SDS011;11401;50.792;4.352;2024-03-06T00:05:11;4.72;;;3.28;;
22468;SDS011;11401;50.792;4.352;2024-03-06T00:07:39;4.55;;;3.70;;
22468;SDS011;11401;50.792;4.352;2024-03-06T00:10:06;3.75;;;3.45;;
22468;SDS011;11401;50.792;4.352;2024-03-06T00:12:33;4.60;;;3.70;;
22468;SDS011;11401;50.792;4.352;2024-03-06T00:15:00;5.75;;;3.53;;
22468;SDS011;11401;50.792;4.352;2024-03-06T00:17:28;3.95;;;3.50;;
22468;SDS011;11401;50.792;4.352;2024-03-06T00:19:56;4.50;;;4.10;;
22468;SDS011;11401;50.792;4.352;2024-03-06T00:22:23;4.93;;;3.85;;
22468;SDS011;11401;50.792;4.352;2024-03-06T00:24:51;4.38;;;3.83;;
22468;SDS011;11401;50.792;4.352;2024-03-06T00:27:18;4.30;;;3.60;;
22468;SDS011;11401;50.792;4.352;2024-03-06T00:29:46;4.45;;;4.05;;
22468;SDS011;11401;50.792;4.352;2024-03-06T00:32:13;4.18;;;3.63;;
22468;SDS011;11401;50.792;4.352;2024-03-06T00:34:40;4.43;;;3.53;;
22468;SDS011;11401;50.792;4.352;2024-03-06T00:37:08;5.82;;;3.63;;
22468;SDS011;11401;50.792;4.352;2024-03-06T00:39:35;3.90;;;3.40;;
22468;SDS011;11401;50.792;4.352;2024-03-06T00:42:02;3.95;;;3.58;;
22468;SDS011;11401;50.792;4.352;2024-03-06T00:44:29;5.22;;;3.88;;
22468;SDS011;11401;50.792;4.352;2024-03-06T00:46:56;4.07;;;3.55;;
22468;SDS011;11401;50.792;4.352;2024-03-06T00:49:23;4.53;;;3.90;;
22468;SDS011;11401;50.792;4.352;2024-03-06T00:51:50;3.38;;;3.08;;
22468;SDS011;11401;50.792;4.352;2024-03-06T00:54:17;3.53;;;3.15;;
22468;SDS011;11401;50.792;4.352;2024-03-06T00:56:44;3.22;;;3.03;;
22468;SDS011;11401;50.792;4.352;2024-03-06T00:59:11;3.75;;;3.45;;
22468;SDS011;11401;50.792;4.352;2024-03-06T01:01:39;3.45;;;3.15;;
22468;SDS011;11401;50.792;4.352;2024-03-06T01:04:07;3.97;;;3.67;;
22468;SDS011;11401;50.792;4.352;2024-03-06T01:06:34;4.18;;;3.88;;
22468;SDS011;11401;50.792;4.352;2024-03-06T01:09:01;3.78;;;3.47;;
22468;SDS011;11401;50.792;4.352;2024-03-06T01:11:29;3.90;;;3.10;;
22468;SDS011;11401;50.792;4.352;2024-03-06T01:13:56;3.80;;;3.50;;
22468;SDS011;11401;50.792;4.352;2024-03-06T01:16:23;3.83;;;3.50;;
22468;SDS011;11401;50.792;4.352;2024-03-06T01:18:50;3.88;;;3.47;;
22468;SDS011;11401;50.792;4.352;2024-03-06T01:21:17;3.88;;;3.58;;
22468;SDS011;11401;50.792;4.352;2024-03-06T01:23:44;3.55;;;3.25;;
22468;SDS011;11401;50.792;4.352;2024-03-06T01:26:11;4.13;;;3.83;;
22468;SDS011;11401;50.792;4.352;2024-03-06T01:28:38;4.88;;;3.55;;
22468;SDS011;11401;50.792;4.352;2024-03-06T01:31:06;3.85;;;3.55;;
22468;SDS011;11401;50.792;4.352;2024-03-06T01:33:33;3.80;;;3.50;;
22468;SDS011;11401;50.792;4.352;2024-03-06T01:36:00;3.55;;;3.25;;
22468;SDS011;11401;50.792;4.352;2024-03-06T01:38:28;5.93;;;3.40;;
22468;SDS011;11401;50.792;4.352;2024-03-06T01:40:55;3.85;;;3.55;;
22468;SDS011;11401;50.792;4.352;2024-03-06T01:43:23;3.97;;;3.67;;
22468;SDS011;11401;50.792;4.352;2024-03-06T01:45:52;4.13;;;3.72;;
22468;SDS011;11401;50.792;4.352;2024-03-06T01:48:26;4.57;;;4.18;;
22468;SDS011;11401;50.792;4.352;2024-03-06T01:50:55;3.85;;;3.47;;
22468;SDS011;11401;50.792;4.352;2024-03-06T01:53:24;3.95;;;3.65;;
22468;SDS011;11401;50.792;4.352;2024-03-06T01:55:53;4.20;;;3.85;;
22468;SDS011;11401;50.792;4.352;2024-03-06T01:58:21;4.40;;;3.97;;
22468;SDS011;11401;50.792;4.352;2024-03-06T02:00:50;4.10;;;3.80;;
22468;SDS011;11401;50.792;4.352;2024-03-06T02:03:20;3.70;;;3.40;;
22468;SDS011;11401;50.792;4.352;2024-03-06T02:05:50;5.18;;;3.70;;
22468;SDS011;11401;50.792;4.352;2024-03-06T02:08:19;3.90;;;3.60;;
22468;SDS011;11401;50.792;4.352;2024-03-06T02:10:46;4.25;;;3.90;;
22468;SDS011;11401;50.792;4.352;2024-03-06T02:13:13;4.03;;;3.72;;
22468;SDS011;11401;50.792;4.352;2024-03-06T02:15:41;3.53;;;3.22;;
22468;SDS011;11401;50.792;4.352;2024-03-06T02:18:08;4.45;;;4.05;;
22468;SDS011;11401;50.792;4.352;2024-03-06T02:20:39;4.78;;;3.75;;
22468;SDS011;11401;50.792;4.352;2024-03-06T02:23:07;3.92;;;3.63;;
22468;SDS011;11401;50.792;4.352;2024-03-06T02:25:34;4.35;;;3.95;;
22468;SDS011;11401;50.792;4.352;2024-03-06T02:28:02;3.88;;;3.58;;
22468;SDS011;11401;50.792;4.352;2024-03-06T02:30:29;5.82;;;3.80;;
22468;SDS011;11401;50.792;4.352;2024-03-06T02:33:02;3.75;;;3.42;;
22468;SDS011;11401;50.792;4.352;2024-03-06T02:35:30;5.28;;;4.25;;
22468;SDS011;11401;50.792;4.352;2024-03-06T02:37:58;4.35;;;3.92;;
22468;SDS011;11401;50.792;4.352;2024-03-06T02:40:26;4.20;;;3.67;;
22468;SDS011;11401;50.792;4.352;2024-03-06T02:42:53;4.28;;;3.92;;
22468;SDS011;11401;50.792;4.352;2024-03-06T02:45:20;4.57;;;3.83;;
22468;SDS011;11401;50.792;4.352;2024-03-06T02:47:47;3.90;;;3.60;;
22468;SDS011;11401;50.792;4.352;2024-03-06T02:50:14;4.07;;;3.72;;
22468;SDS011;11401;50.792;4.352;2024-03-06T02:52:41;4.30;;;3.88;;
22468;SDS011;11401;50.792;4.352;2024-03-06T02:55:08;4.90;;;3.80;;
22468;SDS011;11401;50.792;4.352;2024-03-06T02:57:36;4.25;;;3.95;;
22468;SDS011;11401;50.792;4.352;2024-03-06T03:00:03;4.60;;;3.78;;
22468;SDS011;11401;50.792;4.352;2024-03-06T03:02:31;3.67;;;3.38;;
22468;SDS011;11401;50.792;4.352;2024-03-06T03:04:58;4.78;;;4.20;;
22468;SDS011;11401;50.792;4.352;2024-03-06T03:07:25;4.43;;;4.13;;
22468;SDS011;11401;50.792;4.352;2024-03-06T03:09:52;4.25;;;3.85;;
22468;SDS011;11401;50.792;4.352;2024-03-06T03:12:19;4.22;;;3.92;;
22468;SDS011;11401;50.792;4.352;2024-03-06T03:14:46;4.32;;;4.03;;
22468;SDS011;11401;50.792;4.352;2024-03-06T03:17:13;4.30;;;3.70;;
22468;SDS011;11401;50.792;4.352;2024-03-06T03:19:41;3.85;;;3.63;;
22468;SDS011;11401;50.792;4.352;2024-03-06T03:22:09;4.53;;;4.13;;
22468;SDS011;11401;50.792;4.352;2024-03-06T03:24:36;4.05;;;3.75;;
22468;SDS011;11401;50.792;4.352;2024-03-06T03:27:03;4.07;;;3.78;;
22468;SDS011;11401;50.792;4.352;2024-03-06T03:29:30;4.97;;;3.67;;
22468;SDS011;11401;50.792;4.352;2024-03-06T03:31:57;3.90;;;3.60;;
22468;SDS011;11401;50.792;4.352;2024-03-06T03:34:24;5.07;;;4.40;;
22468;SDS011;11401;50.792;4.352;2024-03-06T03:36:51;5.00;;;4.60;;
22468;SDS011;11401;50.792;4.352;2024-03-06T03:39:18;4.22;;;3.90;;
22468;SDS011;11401;50.792;4.352;2024-03-06T03:41:49;4.22;;;3.92;;
22468;SDS011;11401;50.792;4.352;2024-03-06T03:44:16;4.55;;;4.03;;
22468;SDS011;11401;50.792;4.352;2024-03-06T03:46:45;4.60;;;4.20;;
22468;SDS011;11401;50.792;4.352;2024-03-06T03:49:12;15.30;;;4.13;;
22468;SDS011;11401;50.792;4.352;2024-03-06T03:51:39;4.25;;;3.92;;
22468;SDS011;11401;50.792;4.352;2024-03-06T03:54:06;4.43;;;3.83;;
22468;SDS011;11401;50.792;4.352;2024-03-06T03:56:34;4.53;;;4.13;;
22468;SDS011;11401;50.792;4.352;2024-03-06T03:59:01;3.80;;;3.58;;
22468;SDS011;11401;50.792;4.352;2024-03-06T04:01:31;4.80;;;4.30;;
22468;SDS011;11401;50.792;4.352;2024-03-06T04:03:58;5.97;;;4.45;;
22468;SDS011;11401;50.792;4.352;2024-03-06T04:06:25;4.88;;;4.40;;
22468;SDS011;11401;50.792;4.352;2024-03-06T04:08:52;4.15;;;3.80;;
22468;SDS011;11401;50.792;4.352;2024-03-06T04:11:19;4.22;;;3.83;;
22468;SDS011;11401;50.792;4.352;2024-03-06T04:13:46;5.70;;;4.00;;
22468;SDS011;11401;50.792;4.352;2024-03-06T04:16:19;4.32;;;3.92;;
22468;SDS011;11401;50.792;4.352;2024-03-06T04:18:46;3.95;;;3.65;;
22468;SDS011;11401;50.792;4.352;2024-03-06T04:21:13;4.25;;;3.95;;
22468;SDS011;11401;50.792;4.352;2024-03-06T04:23:43;4.63;;;4.22;;
22468;SDS011;11401;50.792;4.352;2024-03-06T04:26:10;4.72;;;3.95;;
22468;SDS011;11401;50.792;4.352;2024-03-06T04:28:38;4.40;;;4.03;;
22468;SDS011;11401;50.792;4.352;2024-03-06T04:31:06;4.43;;;4.13;;
22468;SDS011;11401;50.792;4.352;2024-03-06T04:33:33;5.32;;;4.43;;
22468;SDS011;11401;50.792;4.352;2024-03-06T04:36:00;4.20;;;3.90;;
22468;SDS011;11401;50.792;4.352;2024-03-06T04:38:32;4.13;;;3.83;;
22468;SDS011;11401;50.792;4.352;2024-03-06T04:40:59;4.28;;;3.97;;
22468;SDS011;11401;50.792;4.352;2024-03-06T04:43:26;3.67;;;3.40;;
22468;SDS011;11401;50.792;4.352;2024-03-06T04:45:53;4.45;;;4.05;;
22468;SDS011;11401;50.792;4.352;2024-03-06T04:48:20;4.03;;;3.72;;
22468;SDS011;11401;50.792;4.352;2024-03-06T04:50:47;4.50;;;4.13;;
22468;SDS011;11401;50.792;4.352;2024-03-06T04:53:15;4.03;;;3.72;;
22468;SDS011;11401;50.792;4.352;2024-03-06T04:55:42;4.28;;;3.97;;
22468;SDS011;11401;50.792;4.352;2024-03-06T04:58:09;4.72;;;4.32;;
22468;SDS011;11401;50.792;4.352;2024-03-06T05:00:36;5.03;;;4.53;;
22468;SDS011;11401;50.792;4.352;2024-03-06T05:03:03;4.30;;;3.90;;
22468;SDS011;11401;50.792;4.352;2024-03-06T05:05:48;4.07;;;3.78;;
22468;SDS011;11401;50.792;4.352;2024-03-06T05:08:33;3.90;;;3.60;;
22468;SDS011;11401;50.792;4.352;2024-03-06T05:11:17;4.28;;;3.88;;
22468;SDS011;11401;50.792;4.352;2024-03-06T05:14:02;5.82;;;3.58;;
22468;SDS011;11401;50.792;4.352;2024-03-06T05:16:47;5.85;;;4.38;;
22468;SDS011;11401;50.792;4.352;2024-03-06T05:19:31;4.63;;;4.22;;
22468;SDS011;11401;50.792;4.352;2024-03-06T05:22:16;4.20;;;3.90;;
22468;SDS011;11401;50.792;4.352;2024-03-06T05:25:01;4.20;;;3.85;;
22468;SDS011;11401;50.792;4.352;2024-03-06T05:27:45;4.70;;;3.72;;
22468;SDS011;11401;50.792;4.352;2024-03-06T05:30:29;5.97;;;4.07;;
22468;SDS011;11401;50.792;4.352;2024-03-06T05:33:14;4.22;;;3.92;;
22468;SDS011;11401;50.792;4.352;2024-03-06T05:35:59;4.70;;;4.30;;
22468;SDS011;11401;50.792;4.352;2024-03-06T05:38:44;5.45;;;4.25;;
22468;SDS011;11401;50.792;4.352;2024-03-06T05:41:29;3.83;;;3.63;;
22468;SDS011;11401;50.792;4.352;2024-03-06T05:44:14;4.72;;;3.97;;
22468;SDS011;11401;50.792;4.352;2024-03-06T05:46:59;5.00;;;3.97;;
22468;SDS011;11401;50.792;4.352;2024-03-06T05:49:44;4.85;;;3.90;;
22468;SDS011;11401;50.792;4.352;2024-03-06T05:52:29;4.57;;;4.18;;
22468;SDS011;11401;50.792;4.352;2024-03-06T05:55:13;5.03;;;4.07;;
22468;SDS011;11401;50.792;4.352;2024-03-06T05:57:57;4.43;;;4.13;;
22468;SDS011;11401;50.792;4.352;2024-03-06T06:00:39;5.25;;;3.78;;
22468;SDS011;11401;50.792;4.352;2024-03-06T06:03:07;3.92;;;3.53;;
22468;SDS011;11401;50.792;4.352;2024-03-06T06:05:38;5.95;;;3.90;;
22468;SDS011;11401;50.792;4.352;2024-03-06T06:08:06;5.15;;;4.20;;
22468;SDS011;11401;50.792;4.352;2024-03-06T06:10:33;4.50;;;4.10;;
22468;SDS011;11401;50.792;4.352;2024-03-06T06:13:01;4.85;;;4.47;;
22468;SDS011;11401;50.792;4.352;2024-03-06T06:15:31;4.72;;;4.32;;
22468;SDS011;11401;50.792;4.352;2024-03-06T06:17:59;4.93;;;4.30;;
22468;SDS011;11401;50.792;4.352;2024-03-06T06:20:26;5.38;;;4.88;;
22468;SDS011;11401;50.792;4.352;2024-03-06T06:22:53;4.95;;;4.38;;
22468;SDS011;11401;50.792;4.352;2024-03-06T06:25:22;4.13;;;3.83;;
22468;SDS011;11401;50.792;4.352;2024-03-06T06:27:49;5.80;;;5.15;;
22468;SDS011;11401;50.792;4.352;2024-03-06T06:30:16;4.55;;;4.15;;
22468;SDS011;11401;50.792;4.352;2024-03-06T06:32:44;6.35;;;4.40;;
22468;SDS011;11401;50.792;4.352;2024-03-06T06:35:12;4.80;;;4.20;;
22468;SDS011;11401;50.792;4.352;2024-03-06T06:37:41;6.22;;;4.50;;
22468;SDS011;11401;50.792;4.352;2024-03-06T06:40:09;9.25;;;4.20;;
22468;SDS011;11401;50.792;4.352;2024-03-06T06:42:43;5.20;;;4.70;;
22468;SDS011;11401;50.792;4.352;2024-03-06T06:45:16;4.10;;;3.80;;
22468;SDS011;11401;50.792;4.352;2024-03-06T06:47:44;5.75;;;4.82;;
22468;SDS011;11401;50.792;4.352;2024-03-06T06:50:12;5.55;;;4.70;;
22468;SDS011;11401;50.792;4.352;2024-03-06T06:52:40;6.53;;;4.50;;
22468;SDS011;11401;50.792;4.352;2024-03-06T06:55:08;4.65;;;4.25;;
22468;SDS011;11401;50.792;4.352;2024-03-06T06:57:38;4.22;;;3.90;;
22468;SDS011;11401;50.792;4.352;2024-03-06T07:00:06;5.15;;;4.63;;
22468;SDS011;11401;50.792;4.352;2024-03-06T07:02:40;6.18;;;5.05;;
22468;SDS011;11401;50.792;4.352;2024-03-06T07:05:10;5.43;;;4.53;;
22468;SDS011;11401;50.792;4.352;2024-03-06T07:07:38;5.05;;;4.55;;
22468;SDS011;11401;50.792;4.352;2024-03-06T07:10:05;5.57;;;4.10;;
22468;SDS011;11401;50.792;4.352;2024-03-06T07:12:33;6.75;;;5.13;;
22468;SDS011;11401;50.792;4.352;2024-03-06T07:15:01;6.55;;;4.50;;
22468;SDS011;11401;50.792;4.352;2024-03-06T07:17:31;6.30;;;5.60;;
22468;SDS011;11401;50.792;4.352;2024-03-06T07:19:58;6.72;;;5.10;;
22468;SDS011;11401;50.792;4.352;2024-03-06T07:22:25;10.32;;;5.20;;
22468;SDS011;11401;50.792;4.352;2024-03-06T07:24:53;6.45;;;4.82;;
22468;SDS011;11401;50.792;4.352;2024-03-06T07:27:22;6.90;;;4.90;;
22468;SDS011;11401;50.792;4.352;2024-03-06T07:29:49;7.00;;;4.53;;
22468;SDS011;11401;50.792;4.352;2024-03-06T07:32:16;6.05;;;5.32;;
22468;SDS011;11401;50.792;4.352;2024-03-06T07:34:43;10.00;;;4.97;;
22468;SDS011;11401;50.792;4.352;2024-03-06T07:37:11;4.93;;;4.43;;
22468;SDS011;11401;50.792;4.352;2024-03-06T07:39:37;5.72;;;4.15;;
22468;SDS011;11401;50.792;4.352;2024-03-06T07:42:05;5.10;;;4.45;;
22468;SDS011;11401;50.792;4.352;2024-03-06T07:44:32;9.85;;;4.97;;
22468;SDS011;11401;50.792;4.352;2024-03-06T07:46:59;5.55;;;4.07;;
22468;SDS011;11401;50.792;4.352;2024-03-06T07:49:27;6.50;;;4.88;;
22468;SDS011;11401;50.792;4.352;2024-03-06T07:51:53;9.98;;;5.43;;
22468;SDS011;11401;50.792;4.352;2024-03-06T07:54:21;7.03;;;4.53;;
22468;SDS011;11401;50.792;4.352;2024-03-06T07:56:47;4.78;;;4.07;;
22468;SDS011;11401;50.792;4.352;2024-03-06T07:59:14;8.73;;;4.70;;
22468;SDS011;11401;50.792;4.352;2024-03-06T08:01:44;6.72;;;4.22;;
22468;SDS011;11401;50.792;4.352;2024-03-06T08:04:11;6.10;;;4.35;;
22468;SDS011;11401;50.792;4.352;2024-03-06T08:06:38;6.43;;;4.55;;
22468;SDS011;11401;50.792;4.352;2024-03-06T08:09:05;5.18;;;4.70;;
22468;SDS011;11401;50.792;4.352;2024-03-06T08:11:34;5.20;;;3.78;;
22468;SDS011;11401;50.792;4.352;2024-03-06T08:14:01;4.82;;;4.00;;
22468;SDS011;11401;50.792;4.352;2024-03-06T08:16:31;5.22;;;4.60;;
22468;SDS011;11401;50.792;4.352;2024-03-06T08:19:02;5.45;;;3.85;;
22468;SDS011;11401;50.792;4.352;2024-03-06T08:21:30;4.57;;;3.85;;
22468;SDS011;11401;50.792;4.352;2024-03-06T08:23:57;6.35;;;4.35;;
22468;SDS011;11401;50.792;4.352;2024-03-06T08:26:24;4.35;;;3.95;;
22468;SDS011;11401;50.792;4.352;2024-03-06T08:28:51;5.03;;;3.63;;
22468;SDS011;11401;50.792;4.352;2024-03-06T08:31:18;7.32;;;4.30;;
22468;SDS011;11401;50.792;4.352;2024-03-06T08:33:48;4.35;;;3.53;;
22468;SDS011;11401;50.792;4.352;2024-03-06T08:36:15;5.38;;;3.75;;
22468;SDS011;11401;50.792;4.352;2024-03-06T08:38:42;4.47;;;4.07;;
22468;SDS011;11401;50.792;4.352;2024-03-06T08:41:10;4.78;;;3.65;;
22468;SDS011;11401;50.792;4.352;2024-03-06T08:43:37;4.28;;;3.88;;
22468;SDS011;11401;50.792;4.352;2024-03-06T08:46:04;5.35;;;3.67;;
22468;SDS011;11401;50.792;4.352;2024-03-06T08:48:31;4.68;;;4.18;;
22468;SDS011;11401;50.792;4.352;2024-03-06T08:50:58;4.05;;;3.67;;
22468;SDS011;11401;50.792;4.352;2024-03-06T08:53:25;4.35;;;3.55;;
22468;SDS011;11401;50.792;4.352;2024-03-06T08:55:52;6.07;;;3.75;;
22468;SDS011;11401;50.792;4.352;2024-03-06T08:58:19;6.18;;;3.50;;
22468;SDS011;11401;50.792;4.352;2024-03-06T09:00:47;5.00;;;3.95;;
22468;SDS011;11401;50.792;4.352;2024-03-06T09:03:15;4.43;;;3.67;;
22468;SDS011;11401;50.792;4.352;2024-03-06T09:05:42;6.18;;;3.78;;
22468;SDS011;11401;50.792;4.352;2024-03-06T09:08:10;4.22;;;3.83;;
22468;SDS011;11401;50.792;4.352;2024-03-06T09:10:38;6.88;;;3.83;;
22468;SDS011;11401;50.792;4.352;2024-03-06T09:13:05;3.97;;;3.13;;
22468;SDS011;11401;50.792;4.352;2024-03-06T09:15:32;5.30;;;4.10;;
22468;SDS011;11401;50.792;4.352;2024-03-06T09:17:59;6.03;;;3.28;;
22468;SDS011;11401;50.792;4.352;2024-03-06T09:20:26;3.95;;;3.15;;
22468;SDS011;11401;50.792;4.352;2024-03-06T09:22:53;3.58;;;3.10;;
22468;SDS011;11401;50.792;4.352;2024-03-06T09:25:23;4.93;;;3.10;;
22468;SDS011;11401;50.792;4.352;2024-03-06T09:27:55;3.80;;;3.50;;
22468;SDS011;11401;50.792;4.352;2024-03-06T09:30:22;3.65;;;3.15;;
22468;SDS011;11401;50.792;4.352;2024-03-06T09:32:49;4.43;;;3.75;;
22468;SDS011;11401;50.792;4.352;2024-03-06T09:35:18;3.38;;;3.08;;
22468;SDS011;11401;50.792;4.352;2024-03-06T09:37:45;3.88;;;3.47;;
22468;SDS011;11401;50.792;4.352;2024-03-06T09:40:19;4.80;;;2.95;;
22468;SDS011;11401;50.792;4.352;2024-03-06T09:42:48;3.58;;;3.28;;
22468;SDS011;11401;50.792;4.352;2024-03-06T09:45:16;3.92;;;3.53;;
22468;SDS011;11401;50.792;4.352;2024-03-06T09:47:43;3.78;;;3.00;;
22468;SDS011;11401;50.792;4.352;2024-03-06T09:50:13;3.28;;;2.97;;
22468;SDS011;11401;50.792;4.352;2024-03-06T09:52:48;3.47;;;3.17;;
22468;SDS011;11401;50.792;4.352;2024-03-06T09:55:19;3.85;;;3.05;;
22468;SDS011;11401;50.792;4.352;2024-03-06T09:57:47;4.93;;;3.35;;
22468;SDS011;11401;50.792;4.352;2024-03-06T10:00:15;2.80;;;2.60;;
22468;SDS011;11401;50.792;4.352;2024-03-06T10:02:48;3.13;;;2.83;;
22468;SDS011;11401;50.792;4.352;2024-03-06T10:05:23;2.72;;;2.53;;
22468;SDS011;11401;50.792;4.352;2024-03-06T10:07:51;2.97;;;2.78;;
22468;SDS011;11401;50.792;4.352;2024-03-06T10:10:19;2.55;;;2.35;;
22468;SDS011;11401;50.792;4.352;2024-03-06T10:12:49;4.63;;;2.78;;
22468;SDS011;11401;50.792;4.352;2024-03-06T10:15:16;2.65;;;2.20;;
22468;SDS011;11401;50.792;4.352;2024-03-06T10:17:43;2.70;;;2.50;;
22468;SDS011;11401;50.792;4.352;2024-03-06T10:22:49;2.50;;;2.30;;
22468;SDS011;11401;50.792;4.352;2024-03-06T10:25:23;2.60;;;1.92;;
22468;SDS011;11401;50.792;4.352;2024-03-06T10:28:04;2.30;;;2.10;;
22468;SDS011;11401;50.792;4.352;2024-03-06T10:30:38;2.45;;;1.83;;
22468;SDS011;11401;50.792;4.352;2024-03-06T10:33:10;4.38;;;1.90;;
22468;SDS011;11401;50.792;4.352;2024-03-06T10:35:39;2.90;;;2.03;;
22468;SDS011;11401;50.792;4.352;2024-03-06T10:38:08;2.03;;;1.92;;
22468;SDS011;11401;50.792;4.352;2024-03-06T10:40:38;2.28;;;2.08;;
22468;SDS011;11401;50.792;4.352;2024-03-06T10:43:07;3.40;;;2.28;;
22468;SDS011;11401;50.792;4.352;2024-03-06T10:48:16;4.75;;;2.00;;
22468;SDS011;11401;50.792;4.352;2024-03-06T10:50:45;3.47;;;2.33;;
22468;SDS011;11401;50.792;4.352;2024-03-06T10:53:15;3.55;;;2.63;;
22468;SDS011;11401;50.792;4.352;2024-03-06T10:55:49;2.05;;;1.95;;
22468;SDS011;11401;50.792;4.352;2024-03-06T10:58:18;4.25;;;2.08;;
22468;SDS011;11401;50.792;4.352;2024-03-06T11:00:47;3.08;;;2.33;;
22468;SDS011;11401;50.792;4.352;2024-03-06T11:03:15;3.22;;;2.50;;
22468;SDS011;11401;50.792;4.352;2024-03-06T11:05:42;3.03;;;2.72;;
22468;SDS011;11401;50.792;4.352;2024-03-06T11:08:13;2.90;;;2.00;;
22468;SDS011;11401;50.792;4.352;2024-03-06T11:10:42;4.18;;;2.17;;
22468;SDS011;11401;50.792;4.352;2024-03-06T11:13:24;3.25;;;2.47;;
22468;SDS011;11401;50.792;4.352;2024-03-06T11:15:58;2.97;;;2.20;;
22468;SDS011;11401;50.792;4.352;2024-03-06T11:20:59;1.98;;;1.88;;
22468;SDS011;11401;50.792;4.352;2024-03-06T11:23:30;2.60;;;1.95;;
22468;SDS011;11401;50.792;4.352;2024-03-06T11:26:01;3.05;;;1.85;;
22468;SDS011;11401;50.792;4.352;2024-03-06T11:28:33;3.17;;;2.50;;
22468;SDS011;11401;50.792;4.352;2024-03-06T11:31:05;3.17;;;2.25;;
22468;SDS011;11401;50.792;4.352;2024-03-06T11:33:37;2.83;;;2.40;;
22468;SDS011;11401;50.792;4.352;2024-03-06T11:36:19;4.28;;;2.38;;
22468;SDS011;11401;50.792;4.352;2024-03-06T11:38:48;2.63;;;2.42;;
22468;SDS011;11401;50.792;4.352;2024-03-06T11:41:17;2.15;;;1.90;;
22468;SDS011;11401;50.792;4.352;2024-03-06T11:43:48;2.85;;;2.38;;
22468;SDS011;11401;50.792;4.352;2024-03-06T11:46:17;3.92;;;2.50;;
22468;SDS011;11401;50.792;4.352;2024-03-06T11:48:51;3.63;;;2.90;;
22468;SDS011;11401;50.792;4.352;2024-03-06T11:51:23;2.53;;;2.30;;
22468;SDS011;11401;50.792;4.352;2024-03-06T11:53:50;3.08;;;2.60;;
22468;SDS011;11401;50.792;4.352;2024-03-06T11:56:18;3.10;;;2.25;;
22468;SDS011;11401;50.792;4.352;2024-03-06T11:58:47;2.30;;;2.10;;
22468;SDS011;11401;50.792;4.352;2024-03-06T12:01:15;5.13;;;2.70;;
22468;SDS011;11401;50.792;4.352;2024-03-06T12:03:45;3.13;;;2.60;;
22468;SDS011;11401;50.792;4.352;2024-03-06T12:06:14;4.72;;;2.75;;
22468;SDS011;11401;50.792;4.352;2024-03-06T12:08:43;4.53;;;2.60;;
22468;SDS011;11401;50.792;4.352;2024-03-06T12:11:11;6.00;;;2.78;;
22468;SDS011;11401;50.792;4.352;2024-03-06T12:13:38;7.80;;;2.60;;
22468;SDS011;11401;50.792;4.352;2024-03-06T12:16:08;5.13;;;2.90;;
22468;SDS011;11401;50.792;4.352;2024-03-06T12:18:35;5.10;;;2.78;;
22468;SDS011;11401;50.792;4.352;2024-03-06T12:21:04;9.57;;;3.05;;
22468;SDS011;11401;50.792;4.352;2024-03-06T12:23:31;2.75;;;2.53;;
22468;SDS011;11401;50.792;4.352;2024-03-06T12:26:08;3.28;;;2.63;;
22468;SDS011;11401;50.792;4.352;2024-03-06T12:28:38;3.95;;;3.35;;
22468;SDS011;11401;50.792;4.352;2024-03-06T12:31:06;4.13;;;2.75;;
22468;SDS011;11401;50.792;4.352;2024-03-06T12:33:34;3.50;;;2.78;;
22468;SDS011;11401;50.792;4.352;2024-03-06T12:36:08;4.10;;;3.33;;
22468;SDS011;11401;50.792;4.352;2024-03-06T12:38:38;5.65;;;2.95;;
22468;SDS011;11401;50.792;4.352;2024-03-06T12:41:06;2.95;;;2.58;;
22468;SDS011;11401;50.792;4.352;2024-03-06T12:43:33;4.18;;;2.97;;
22468;SDS011;11401;50.792;4.352;2024-03-06T12:46:01;4.93;;;2.63;;
22468;SDS011;11401;50.792;4.352;2024-03-06T12:48:31;5.13;;;2.90;;
22468;SDS011;11401;50.792;4.352;2024-03-06T12:50:59;3.75;;;2.50;;
22468;SDS011;11401;50.792;4.352;2024-03-06T12:53:32;3.78;;;2.50;;
22468;SDS011;11401;50.792;4.352;2024-03-06T12:56:02;4.70;;;3.08;;
22468;SDS011;11401;50.792;4.352;2024-03-06T12:58:30;8.23;;;3.05;;
22468;SDS011;11401;50.792;4.352;2024-03-06T13:00:57;4.70;;;2.60;;
22468;SDS011;11401;50.792;4.352;2024-03-06T13:03:25;3.50;;;2.70;;
22468;SDS011;11401;50.792;4.352;2024-03-06T13:05:52;5.57;;;3.10;;
22468;SDS011;11401;50.792;4.352;2024-03-06T13:08:19;3.58;;;3.15;;
22468;SDS011;11401;50.792;4.352;2024-03-06T13:10:46;3.17;;;2.28;;
22468;SDS011;11401;50.792;4.352;2024-03-06T13:13:13;7.05;;;2.97;;
22468;SDS011;11401;50.792;4.352;2024-03-06T13:15:41;4.70;;;2.65;;
22468;SDS011;11401;50.792;4.352;2024-03-06T13:18:07;4.00;;;2.70;;
22468;SDS011;11401;50.792;4.352;2024-03-06T13:20:35;4.57;;;2.35;;
22468;SDS011;11401;50.792;4.352;2024-03-06T13:23:02;3.03;;;2.53;;
22468;SDS011;11401;50.792;4.352;2024-03-06T13:25:30;6.40;;;2.58;;
22468;SDS011;11401;50.792;4.352;2024-03-06T13:27:58;4.22;;;2.72;;
22468;SDS011;11401;50.792;4.352;2024-03-06T13:30:25;4.53;;;2.70;;
22468;SDS011;11401;50.792;4.352;2024-03-06T13:32:52;3.30;;;2.67;;
22468;SDS011;11401;50.792;4.352;2024-03-06T13:35:20;5.13;;;3.00;;
22468;SDS011;11401;50.792;4.352;2024-03-06T13:37:47;5.13;;;2.63;;
22468;SDS011;11401;50.792;4.352;2024-03-06T13:40:15;3.60;;;2.83;;
22468;SDS011;11401;50.792;4.352;2024-03-06T13:42:44;2.85;;;2.47;;
22468;SDS011;11401;50.792;4.352;2024-03-06T13:45:12;7.57;;;2.97;;
22468;SDS011;11401;50.792;4.352;2024-03-06T13:47:41;3.15;;;2.35;;
22468;SDS011;11401;50.792;4.352;2024-03-06T13:50:09;2.60;;;2.30;;
22468;SDS011;11401;50.792;4.352;2024-03-06T13:52:41;2.33;;;2.13;;
22468;SDS011;11401;50.792;4.352;2024-03-06T13:55:09;3.85;;;2.40;;
22468;SDS011;11401;50.792;4.352;2024-03-06T13:57:37;4.95;;;2.75;;
22468;SDS011;11401;50.792;4.352;2024-03-06T14:00:05;4.35;;;2.35;;
22468;SDS011;11401;50.792;4.352;2024-03-06T14:02:39;3.92;;;2.35;;
22468;SDS011;11401;50.792;4.352;2024-03-06T14:05:06;5.60;;;2.33;;
22468;SDS011;11401;50.792;4.352;2024-03-06T14:07:34;3.10;;;2.42;;
22468;SDS011;11401;50.792;4.352;2024-03-06T14:10:01;3.13;;;2.13;;
22468;SDS011;11401;50.792;4.352;2024-03-06T14:12:32;2.88;;;2.30;;
22468;SDS011;11401;50.792;4.352;2024-03-06T14:14:59;3.75;;;2.00;;
22468;SDS011;11401;50.792;4.352;2024-03-06T14:17:26;4.40;;;2.50;;
22468;SDS011;11401;50.792;4.352;2024-03-06T14:19:53;2.55;;;2.17;;
22468;SDS011;11401;50.792;4.352;2024-03-06T14:22:21;5.03;;;2.70;;
22468;SDS011;11401;50.792;4.352;2024-03-06T14:24:48;2.97;;;2.17;;
22468;SDS011;11401;50.792;4.352;2024-03-06T14:27:15;2.50;;;2.10;;
22468;SDS011;11401;50.792;4.352;2024-03-06T14:29:43;2.70;;;1.90;;
22468;SDS011;11401;50.792;4.352;2024-03-06T14:32:11;2.28;;;1.90;;
22468;SDS011;11401;50.792;4.352;2024-03-06T14:34:38;2.58;;;2.00;;
22468;SDS011;11401;50.792;4.352;2024-03-06T14:37:05;2.83;;;2.15;;
22468;SDS011;11401;50.792;4.352;2024-03-06T14:39:33;5.22;;;2.05;;
22468;SDS011;11401;50.792;4.352;2024-03-06T14:42:00;2.05;;;1.95;;
22468;SDS011;11401;50.792;4.352;2024-03-06T14:44:27;2.42;;;2.17;;
22468;SDS011;11401;50.792;4.352;2024-03-06T14:46:55;2.92;;;1.88;;
22468;SDS011;11401;50.792;4.352;2024-03-06T14:49:22;4.00;;;2.10;;
22468;SDS011;11401;50.792;4.352;2024-03-06T14:51:49;2.20;;;2.00;;
22468;SDS011;11401;50.792;4.352;2024-03-06T14:54:16;2.08;;;1.88;;
22468;SDS011;11401;50.792;4.352;2024-03-06T14:56:43;4.32;;;2.35;;
22468;SDS011;11401;50.792;4.352;2024-03-06T14:59:11;3.00;;;1.80;;
22468;SDS011;11401;50.792;4.352;2024-03-06T15:01:38;4.00;;;1.95;;
22468;SDS011;11401;50.792;4.352;2024-03-06T15:04:05;2.55;;;1.70;;
22468;SDS011;11401;50.792;4.352;2024-03-06T15:06:32;4.03;;;2.00;;